createdAt,value
2022-10-14T00:00:06.197Z,7.63
2022-10-14T00:02:32.549Z,7.53
2022-10-14T00:04:58.919Z,7.33
2022-10-14T00:07:25.280Z,7.58
2022-10-14T00:09:51.651Z,7.87
2022-10-14T00:12:18.009Z,7.60
2022-10-14T00:14:44.375Z,7.63
2022-10-14T00:17:10.743Z,7.30
2022-10-14T00:19:37.106Z,7.59
2022-10-14T00:22:03.475Z,7.43
2022-10-14T00:24:29.835Z,7.40
2022-10-14T00:26:56.195Z,7.52
2022-10-14T00:29:22.566Z,7.39
2022-10-14T00:31:48.942Z,7.49
2022-10-14T00:34:15.317Z,7.49
2022-10-14T00:36:41.669Z,7.00
2022-10-14T00:39:08.047Z,7.10
2022-10-14T00:41:34.415Z,7.33
2022-10-14T00:44:00.784Z,7.28
2022-10-14T00:46:27.171Z,7.38
2022-10-14T00:48:53.532Z,7.03
2022-10-14T00:51:19.904Z,7.30
2022-10-14T00:53:46.286Z,7.48
2022-10-14T00:56:12.636Z,7.01
2022-10-14T00:58:38.998Z,7.25
2022-10-14T01:01:05.482Z,7.20
2022-10-14T01:03:31.907Z,7.23
2022-10-14T01:05:58.269Z,7.06
2022-10-14T01:08:24.642Z,6.67
2022-10-14T01:10:51.008Z,7.14
2022-10-14T01:13:17.378Z,6.71
2022-10-14T01:15:43.745Z,7.11
2022-10-14T01:18:10.110Z,6.98
2022-10-14T01:20:36.533Z,7.18
2022-10-14T01:23:02.888Z,6.70
2022-10-14T01:25:29.249Z,7.09
2022-10-14T01:27:55.615Z,6.76
2022-10-14T01:30:21.968Z,6.68
2022-10-14T01:32:48.334Z,7.03
2022-10-14T01:35:14.704Z,6.72
2022-10-14T01:37:41.063Z,6.75
2022-10-14T01:40:07.436Z,6.55
2022-10-14T01:42:33.806Z,6.80
2022-10-14T01:45:00.192Z,6.66
2022-10-14T01:47:26.557Z,6.63
2022-10-14T01:49:52.928Z,6.84
2022-10-14T01:52:19.592Z,6.57
2022-10-14T01:54:46.177Z,6.42
2022-10-14T01:57:12.541Z,6.10
2022-10-14T01:59:38.895Z,6.75
2022-10-14T02:02:05.340Z,6.53
2022-10-14T02:04:31.745Z,6.40
2022-10-14T02:06:58.196Z,6.23
2022-10-14T02:09:24.574Z,6.63
2022-10-14T02:11:50.928Z,6.19
2022-10-14T02:14:17.302Z,6.32
2022-10-14T02:16:43.656Z,6.15
2022-10-14T02:19:10.025Z,6.43
2022-10-14T02:21:36.384Z,6.29
2022-10-14T02:24:02.764Z,6.29
2022-10-14T02:26:29.137Z,6.32
2022-10-14T02:28:55.541Z,6.06
2022-10-14T02:31:21.955Z,6.42
2022-10-14T02:33:48.314Z,6.00
2022-10-14T02:36:14.686Z,6.22
2022-10-14T02:38:41.050Z,5.84
2022-10-14T02:41:07.411Z,5.84
2022-10-14T02:43:33.783Z,6.10
2022-10-14T02:46:00.168Z,5.74
2022-10-14T02:48:26.530Z,5.81
2022-10-14T02:50:52.899Z,6.34
2022-10-14T02:53:19.290Z,6.28
2022-10-14T02:55:45.656Z,5.78
2022-10-14T02:58:12.025Z,5.69
2022-10-14T03:00:38.385Z,5.91
2022-10-14T03:03:04.751Z,6.05
2022-10-14T03:05:31.126Z,6.19
2022-10-14T03:07:57.493Z,5.84
2022-10-14T03:10:23.845Z,5.94
2022-10-14T03:12:50.223Z,5.62
2022-10-14T03:15:16.593Z,5.86
2022-10-14T03:17:42.958Z,5.78
2022-10-14T03:20:09.334Z,5.59
2022-10-14T03:22:35.692Z,5.63
2022-10-14T03:25:02.043Z,5.75
2022-10-14T03:27:28.403Z,5.49
2022-10-14T03:29:54.770Z,5.77
2022-10-14T03:32:21.399Z,5.58
2022-10-14T03:34:48.015Z,5.71
2022-10-14T03:37:14.387Z,5.38
2022-10-14T03:39:40.750Z,5.44
2022-10-14T03:42:07.108Z,5.55
2022-10-14T03:44:33.461Z,5.48
2022-10-14T03:46:59.837Z,5.45
2022-10-14T03:49:26.204Z,5.22
2022-10-14T03:51:52.582Z,5.39
2022-10-14T03:54:18.943Z,5.34
2022-10-14T03:56:45.295Z,5.16
2022-10-14T03:59:11.656Z,5.32
2022-10-14T04:01:38.157Z,5.26
2022-10-14T04:04:04.617Z,5.42
2022-10-14T04:06:30.987Z,5.34
2022-10-14T04:08:57.349Z,5.12
2022-10-14T04:11:23.726Z,5.46
2022-10-14T04:13:50.093Z,5.20
2022-10-14T04:16:16.451Z,5.56
2022-10-14T04:18:42.864Z,5.15
2022-10-14T04:21:09.241Z,5.35
2022-10-14T04:23:35.653Z,5.51
2022-10-14T04:26:02.020Z,4.99
2022-10-14T04:28:28.435Z,4.88
2022-10-14T04:30:54.832Z,4.91
2022-10-14T04:33:21.189Z,5.15
2022-10-14T04:35:47.548Z,5.04
2022-10-14T04:38:13.916Z,5.06
2022-10-14T04:40:40.278Z,5.17
2022-10-14T04:43:06.660Z,5.07
2022-10-14T04:45:33.030Z,5.12
2022-10-14T04:47:59.396Z,5.16
2022-10-14T04:50:25.760Z,5.05
2022-10-14T04:52:52.125Z,4.93
2022-10-14T04:55:18.483Z,5.09
2022-10-14T04:57:44.861Z,4.71
2022-10-14T05:00:11.216Z,4.97
2022-10-14T05:02:37.573Z,4.87
2022-10-14T05:05:03.970Z,4.86
2022-10-14T05:07:30.338Z,5.09
2022-10-14T05:09:57.024Z,4.89
2022-10-14T05:12:23.854Z,5.07
2022-10-14T05:14:50.428Z,5.12
2022-10-14T05:17:16.807Z,4.96
2022-10-14T05:19:43.177Z,5.16
2022-10-14T05:22:09.553Z,5.07
2022-10-14T05:24:35.915Z,4.79
2022-10-14T05:27:02.278Z,4.76
2022-10-14T05:29:28.644Z,4.64
2022-10-14T05:31:55.007Z,4.63
2022-10-14T05:34:21.371Z,4.57
2022-10-14T05:36:47.742Z,4.34
2022-10-14T05:39:14.114Z,4.48
2022-10-14T05:41:40.638Z,4.63
2022-10-14T05:44:07.046Z,4.63
2022-10-14T05:46:33.411Z,4.82
2022-10-14T05:48:59.772Z,4.73
2022-10-14T05:51:26.127Z,4.65
2022-10-14T05:53:52.501Z,4.48
2022-10-14T05:56:18.871Z,4.49
2022-10-14T05:58:45.249Z,4.64
2022-10-14T06:01:11.608Z,4.47
2022-10-14T06:03:37.975Z,4.47
2022-10-14T06:06:04.347Z,4.41
2022-10-14T06:08:30.718Z,4.54
2022-10-14T06:10:57.096Z,4.63
2022-10-14T06:13:23.470Z,4.47
2022-10-14T06:15:49.841Z,4.45
2022-10-14T06:18:16.214Z,4.42
2022-10-14T06:20:42.567Z,4.66
2022-10-14T06:23:08.935Z,4.43
2022-10-14T06:25:35.315Z,4.49
2022-10-14T06:28:01.677Z,4.45
2022-10-14T06:30:28.045Z,4.65
2022-10-14T06:32:54.404Z,4.30
2022-10-14T06:35:20.770Z,4.29
2022-10-14T06:37:47.147Z,4.30
2022-10-14T06:40:13.527Z,4.30
2022-10-14T06:42:39.901Z,4.09
2022-10-14T06:45:06.255Z,3.90
2022-10-14T06:47:32.621Z,4.27
2022-10-14T06:49:58.975Z,4.51
2022-10-14T06:52:25.345Z,3.97
2022-10-14T06:54:51.717Z,4.59
2022-10-14T06:57:18.091Z,4.24
2022-10-14T06:59:44.467Z,4.10
2022-10-14T07:02:10.834Z,4.29
2022-10-14T07:04:37.210Z,4.20
2022-10-14T07:07:03.573Z,4.44
2022-10-14T07:09:29.972Z,4.15
2022-10-14T07:11:56.346Z,4.20
2022-10-14T07:14:22.708Z,4.08
2022-10-14T07:16:49.066Z,3.98
2022-10-14T07:19:15.442Z,4.12
2022-10-14T07:21:41.807Z,4.34
2022-10-14T07:24:08.168Z,4.28
2022-10-14T07:26:34.538Z,3.87
2022-10-14T07:29:00.992Z,4.11
2022-10-14T07:31:27.413Z,4.19
2022-10-14T07:33:53.775Z,3.85
2022-10-14T07:36:22.523Z,3.92
2022-10-14T07:38:49.347Z,4.15
2022-10-14T07:41:15.725Z,3.95
2022-10-14T07:43:42.093Z,4.11
2022-10-14T07:46:08.522Z,4.23
2022-10-14T07:48:52.351Z,4.27
2022-10-14T07:51:21.286Z,4.05
2022-10-14T07:53:47.666Z,4.08
2022-10-14T07:56:14.022Z,4.18
2022-10-14T07:58:44.328Z,4.16
2022-10-14T08:01:11.015Z,4.40
2022-10-14T08:03:37.380Z,3.95
2022-10-14T08:06:03.750Z,4.15
2022-10-14T08:08:30.112Z,3.95
2022-10-14T08:10:56.472Z,3.94
2022-10-14T08:13:22.828Z,3.78
2022-10-14T08:15:49.181Z,4.27
2022-10-14T08:18:15.770Z,4.15
2022-10-14T08:20:42.472Z,4.35
2022-10-14T08:23:08.886Z,4.02
2022-10-14T08:25:35.247Z,3.96
2022-10-14T08:28:01.623Z,4.32
2022-10-14T08:30:27.984Z,4.48
2022-10-14T08:32:54.340Z,4.25
2022-10-14T08:35:20.725Z,4.50
2022-10-14T08:37:47.090Z,4.50
2022-10-14T08:40:13.507Z,4.66
2022-10-14T08:42:39.874Z,4.65
2022-10-14T08:45:06.243Z,4.75
2022-10-14T08:47:32.614Z,5.23
2022-10-14T08:49:58.975Z,5.35
2022-10-14T08:52:25.380Z,5.35
2022-10-14T08:54:51.742Z,5.53
2022-10-14T08:57:18.115Z,5.80
2022-10-14T08:59:44.491Z,6.22
2022-10-14T09:02:10.868Z,6.60
2022-10-14T09:04:37.224Z,6.76
2022-10-14T09:07:03.583Z,6.73
2022-10-14T09:09:29.954Z,7.18
2022-10-14T09:11:56.324Z,7.60
2022-10-14T09:14:22.689Z,7.72
2022-10-14T09:16:51.843Z,8.14
2022-10-14T09:19:20.748Z,8.39
2022-10-14T09:21:52.641Z,8.65
2022-10-14T09:24:19.799Z,9.43
2022-10-14T09:26:46.248Z,9.59
2022-10-14T09:29:12.654Z,9.48
2022-10-14T09:31:39.084Z,10.45
2022-10-14T09:34:05.465Z,10.76
2022-10-14T09:36:31.832Z,11.08
2022-10-14T09:39:02.292Z,11.17
2022-10-14T09:41:31.787Z,11.23
2022-10-14T09:43:58.149Z,11.87
2022-10-14T09:46:24.522Z,12.81
2022-10-14T09:48:50.900Z,12.91
2022-10-14T09:51:17.256Z,13.21
2022-10-14T09:53:43.628Z,13.14
2022-10-14T09:56:10.007Z,13.44
2022-10-14T09:58:36.389Z,13.74
2022-10-14T10:01:02.763Z,13.90
2022-10-14T10:03:29.127Z,13.60
2022-10-14T10:05:55.497Z,13.27
2022-10-14T10:08:21.856Z,13.43
2022-10-14T10:10:48.230Z,13.94
2022-10-14T10:16:00.919Z,14.79
2022-10-14T10:18:27.300Z,15.50
2022-10-14T10:20:53.676Z,15.24
2022-10-14T10:23:20.046Z,15.73
2022-10-14T10:25:46.426Z,15.90
2022-10-14T10:28:12.802Z,15.66
2022-10-14T10:30:39.186Z,15.74
2022-10-14T10:33:05.575Z,15.78
2022-10-14T10:35:31.949Z,15.68
2022-10-14T10:37:58.334Z,16.32
2022-10-14T10:40:24.728Z,16.33
2022-10-14T10:42:51.104Z,16.11
2022-10-14T10:45:17.513Z,16.57
2022-10-14T10:47:43.936Z,16.69
2022-10-14T10:50:10.352Z,17.44
2022-10-14T10:52:36.811Z,17.17
2022-10-14T10:55:03.263Z,17.46
2022-10-14T10:57:29.724Z,17.19
2022-10-14T10:59:56.132Z,18.28
2022-10-14T11:02:22.853Z,17.35
2022-10-14T11:04:49.426Z,17.57
2022-10-14T11:07:15.887Z,17.64
2022-10-14T11:09:42.339Z,17.87
2022-10-14T11:12:08.803Z,18.26
2022-10-14T11:14:35.228Z,18.10
2022-10-14T11:17:01.646Z,17.43
2022-10-14T11:19:28.238Z,17.80
2022-10-14T11:21:54.696Z,18.23
2022-10-14T11:24:21.152Z,18.06
2022-10-14T11:26:47.823Z,18.35
2022-10-14T11:29:14.253Z,18.56
2022-10-14T11:31:40.649Z,18.47
2022-10-14T11:34:07.043Z,18.46
2022-10-14T11:36:33.447Z,18.45
2022-10-14T11:38:59.837Z,18.40
2022-10-14T11:41:26.204Z,18.87
2022-10-14T11:43:52.622Z,19.12
2022-10-14T11:46:18.992Z,18.78
2022-10-14T11:48:45.507Z,19.09
2022-10-14T11:51:11.903Z,18.87
2022-10-14T11:56:24.590Z,18.53
2022-10-14T11:58:50.957Z,18.60
2022-10-14T12:01:17.357Z,19.43
2022-10-14T12:03:43.749Z,20.12
2022-10-14T12:06:10.124Z,19.88
2022-10-14T12:08:36.494Z,20.40
2022-10-14T12:11:02.868Z,20.68
2022-10-14T12:13:29.242Z,20.93
2022-10-14T12:15:55.618Z,20.78
2022-10-14T12:18:22.010Z,20.57
2022-10-14T12:20:48.402Z,20.55
2022-10-14T12:23:14.780Z,21.37
2022-10-14T12:25:41.144Z,20.61
2022-10-14T12:28:07.556Z,21.21
2022-10-14T12:30:33.943Z,21.55
2022-10-14T12:33:00.468Z,22.05
2022-10-14T12:35:26.841Z,22.37
2022-10-14T12:37:53.275Z,21.46
2022-10-14T12:40:19.665Z,21.78
2022-10-14T12:42:46.049Z,21.65
2022-10-14T12:45:12.416Z,22.55
2022-10-14T12:47:38.785Z,22.69
2022-10-14T12:50:05.169Z,22.78
2022-10-14T12:52:31.558Z,23.51
2022-10-14T12:54:57.943Z,22.69
2022-10-14T12:57:24.420Z,23.57
2022-10-14T12:59:50.861Z,22.32
2022-10-14T13:02:17.243Z,22.75
2022-10-14T13:04:43.613Z,23.51
2022-10-14T13:07:16.704Z,23.42
2022-10-14T13:09:56.349Z,23.82
2022-10-14T13:12:22.730Z,24.14
2022-10-14T13:14:49.096Z,24.02
2022-10-14T13:17:15.722Z,23.85
2022-10-14T13:19:42.162Z,23.98
2022-10-14T13:22:09.022Z,23.91
2022-10-14T13:24:35.417Z,24.59
2022-10-14T13:27:01.827Z,24.17
2022-10-14T13:29:28.209Z,25.09
2022-10-14T13:31:54.596Z,24.62
2022-10-14T13:34:20.977Z,24.66
2022-10-14T13:36:47.359Z,24.39
2022-10-14T13:39:13.740Z,24.61
2022-10-14T13:41:40.124Z,24.18
2022-10-14T13:44:06.521Z,25.27
2022-10-14T13:46:32.897Z,25.37
2022-10-14T13:48:59.284Z,25.09
2022-10-14T13:51:36.262Z,25.92
2022-10-14T13:54:03.538Z,25.12
2022-10-14T13:56:29.912Z,25.51
2022-10-14T13:58:56.299Z,25.41
2022-10-14T14:01:22.732Z,26.33
2022-10-14T14:03:49.142Z,25.70
2022-10-14T14:06:15.534Z,25.45
2022-10-14T14:08:42.949Z,26.47
2022-10-14T14:11:18.433Z,26.13
2022-10-14T14:13:49.842Z,27.06
2022-10-14T14:16:18.091Z,26.97
2022-10-14T14:18:56.007Z,26.93
2022-10-14T14:21:22.994Z,26.46
2022-10-14T14:23:49.389Z,27.94
2022-10-14T14:26:19.405Z,27.44
2022-10-14T14:28:46.177Z,27.35
2022-10-14T14:31:12.598Z,27.10
2022-10-14T14:33:38.963Z,27.08
2022-10-14T14:36:05.355Z,27.35
2022-10-14T14:38:31.720Z,27.92
2022-10-14T14:40:58.085Z,29.21
2022-10-14T14:43:24.463Z,28.01
2022-10-14T14:45:50.839Z,28.82
2022-10-14T14:48:17.218Z,28.59
2022-10-14T14:50:43.602Z,29.21
2022-10-14T14:53:09.967Z,29.12
2022-10-14T14:55:36.353Z,29.85
2022-10-14T14:58:02.716Z,29.15
2022-10-14T15:00:29.116Z,29.31
2022-10-14T15:02:55.480Z,30.08
2022-10-14T15:05:21.849Z,29.75
2022-10-14T15:07:48.316Z,30.10
2022-10-14T15:10:14.688Z,30.33
2022-10-14T15:12:41.077Z,29.91
2022-10-14T15:15:07.460Z,30.77
2022-10-14T15:17:33.830Z,30.79
2022-10-14T15:20:00.262Z,31.04
2022-10-14T15:22:29.666Z,31.83
2022-10-14T15:24:56.705Z,31.67
2022-10-14T15:27:23.078Z,31.69
2022-10-14T15:29:49.443Z,31.08
2022-10-14T15:32:15.820Z,32.18
2022-10-14T15:34:42.184Z,32.57
2022-10-14T15:37:08.543Z,31.97
2022-10-14T15:39:34.911Z,32.50
2022-10-14T15:42:01.272Z,32.77
2022-10-14T15:44:27.639Z,32.44
2022-10-14T15:46:54.014Z,33.24
2022-10-14T15:49:20.485Z,32.68
2022-10-14T15:51:46.863Z,33.80
2022-10-14T15:54:13.228Z,33.96
2022-10-14T15:56:39.605Z,34.51
2022-10-14T15:59:05.981Z,34.20
2022-10-14T16:01:32.410Z,33.61
2022-10-14T16:04:00.218Z,34.47
2022-10-14T16:06:27.982Z,34.56
2022-10-14T16:08:54.444Z,34.16
2022-10-14T16:11:20.877Z,34.78
2022-10-14T16:13:47.253Z,34.35
2022-10-14T16:16:13.677Z,34.95
2022-10-14T16:18:40.160Z,34.99
2022-10-14T16:21:07.930Z,34.44
2022-10-14T16:23:34.294Z,34.66
2022-10-14T16:26:00.681Z,34.39
2022-10-14T16:28:27.129Z,34.37
2022-10-14T16:30:53.536Z,34.41
2022-10-14T16:33:19.909Z,34.22
2022-10-14T16:35:46.290Z,34.31
2022-10-14T16:38:12.655Z,33.86
2022-10-14T16:40:39.024Z,33.52
2022-10-14T16:43:05.397Z,33.63
2022-10-14T16:45:31.773Z,33.20
2022-10-14T16:47:58.154Z,33.39
2022-10-14T16:50:24.533Z,33.06
2022-10-14T16:52:50.908Z,33.94
2022-10-14T16:55:17.292Z,32.84
2022-10-14T16:57:43.658Z,33.84
2022-10-14T17:00:10.099Z,33.31
2022-10-14T17:02:36.542Z,33.24
2022-10-14T17:05:02.925Z,32.84
2022-10-14T17:07:29.294Z,32.69
2022-10-14T17:09:55.664Z,32.36
2022-10-14T17:12:22.254Z,32.48
2022-10-14T17:14:48.852Z,32.44
2022-10-14T17:17:15.327Z,32.20
2022-10-14T17:19:41.709Z,31.83
2022-10-14T17:22:08.086Z,32.09
2022-10-14T17:24:34.474Z,31.59
2022-10-14T17:27:00.843Z,31.78
2022-10-14T17:29:27.210Z,31.28
2022-10-14T17:31:53.575Z,31.41
2022-10-14T17:34:19.939Z,30.89
2022-10-14T17:36:46.328Z,31.63
2022-10-14T17:39:16.378Z,30.98
2022-10-14T17:41:47.772Z,29.78
2022-10-14T17:44:14.211Z,30.64
2022-10-14T17:46:40.586Z,29.62
2022-10-14T17:49:06.954Z,30.22
2022-10-14T17:51:33.341Z,30.14
2022-10-14T17:53:59.713Z,30.19
2022-10-14T17:56:26.099Z,30.00
2022-10-14T17:58:52.480Z,29.75
2022-10-14T18:01:21.549Z,29.81
2022-10-14T18:03:53.670Z,29.59
2022-10-14T18:06:20.035Z,29.26
2022-10-14T18:08:46.404Z,29.58
2022-10-14T18:11:12.782Z,29.00
2022-10-14T18:16:06.478Z,29.11
2022-10-14T18:18:32.853Z,29.26
2022-10-14T18:20:59.219Z,29.30
2022-10-14T18:23:25.586Z,29.10
2022-10-14T18:25:51.974Z,28.01
2022-10-14T18:28:18.376Z,28.67
2022-10-14T18:30:44.781Z,29.50
2022-10-14T18:33:11.194Z,28.31
2022-10-14T18:35:37.567Z,27.38
2022-10-14T18:38:03.946Z,27.78
2022-10-14T18:40:30.315Z,27.95
2022-10-14T18:42:56.692Z,27.37
2022-10-14T18:45:23.081Z,27.58
2022-10-14T18:47:49.443Z,27.72
2022-10-14T18:50:15.808Z,27.51
2022-10-14T18:52:42.184Z,27.77
2022-10-14T18:55:08.565Z,28.03
2022-10-14T18:57:34.932Z,27.34
2022-10-14T19:00:01.306Z,26.72
2022-10-14T19:02:27.688Z,26.85
2022-10-14T19:04:54.066Z,26.71
2022-10-14T19:07:20.429Z,26.45
2022-10-14T19:09:46.816Z,26.23
2022-10-14T19:12:13.185Z,26.63
2022-10-14T19:14:39.559Z,26.86
2022-10-14T19:17:05.971Z,26.74
2022-10-14T19:19:32.371Z,26.44
2022-10-14T19:21:58.737Z,25.63
2022-10-14T19:24:25.199Z,25.98
2022-10-14T19:26:51.580Z,25.91
2022-10-14T19:29:17.965Z,26.88
2022-10-14T19:31:44.464Z,26.82
2022-10-14T19:34:10.841Z,27.11
2022-10-14T19:36:37.221Z,26.53
2022-10-14T19:39:03.604Z,26.80
2022-10-14T19:41:29.972Z,26.70
2022-10-14T19:43:56.348Z,26.62
2022-10-14T19:46:22.724Z,26.17
2022-10-14T19:48:49.084Z,26.40
2022-10-14T19:51:15.457Z,26.45
2022-10-14T19:53:41.825Z,26.44
2022-10-14T19:56:08.197Z,27.06
2022-10-14T19:58:34.573Z,26.65
2022-10-14T20:01:01.022Z,26.06
2022-10-14T20:03:27.409Z,26.11
2022-10-14T20:05:53.791Z,26.09
2022-10-14T20:08:20.179Z,26.09
2022-10-14T20:10:46.560Z,25.66
2022-10-14T20:13:12.927Z,26.41
2022-10-14T20:15:39.294Z,25.81
2022-10-14T20:18:05.678Z,25.77
2022-10-14T20:20:32.053Z,25.49
2022-10-14T20:22:58.421Z,25.81
2022-10-14T20:25:24.801Z,25.19
2022-10-14T20:27:51.163Z,26.02
2022-10-14T20:30:17.538Z,26.16
2022-10-14T20:32:43.899Z,25.18
2022-10-14T20:35:14.817Z,25.27
2022-10-14T20:37:41.420Z,25.45
2022-10-14T20:40:07.795Z,25.13
2022-10-14T20:42:34.165Z,25.37
2022-10-14T20:45:00.539Z,25.04
2022-10-14T20:47:29.728Z,24.43
2022-10-14T20:49:56.095Z,24.86
2022-10-14T20:52:22.474Z,23.65
2022-10-14T20:54:48.861Z,23.88
2022-10-14T20:57:15.238Z,23.82
2022-10-14T20:59:41.604Z,23.01
2022-10-14T21:02:11.811Z,22.54
2022-10-14T21:04:40.804Z,22.46
2022-10-14T21:07:07.164Z,22.56
2022-10-14T21:09:33.539Z,22.57
2022-10-14T21:11:59.909Z,22.42
2022-10-14T21:14:26.295Z,21.93
2022-10-14T21:16:52.676Z,21.67
2022-10-14T21:19:19.070Z,21.35
2022-10-14T21:21:45.497Z,21.13
2022-10-14T21:24:11.908Z,20.75
2022-10-14T21:26:38.271Z,20.70
2022-10-14T21:29:04.638Z,20.32
2022-10-14T21:31:31.026Z,20.31
2022-10-14T21:34:02.584Z,20.82
2022-10-14T21:36:31.653Z,19.79
2022-10-14T21:38:58.040Z,19.39
2022-10-14T21:41:24.435Z,19.47
2022-10-14T21:43:50.818Z,18.89
2022-10-14T21:46:17.183Z,18.52
2022-10-14T21:48:43.554Z,17.06
2022-10-14T21:51:09.942Z,16.78
2022-10-14T21:53:36.317Z,18.13
2022-10-14T21:56:02.701Z,16.69
2022-10-14T21:58:29.069Z,16.92
2022-10-14T22:00:55.473Z,17.06
2022-10-14T22:03:21.890Z,16.66
2022-10-14T22:05:48.268Z,16.06
2022-10-14T22:08:14.629Z,16.15
2022-10-14T22:10:41.020Z,15.93
2022-10-14T22:13:07.395Z,15.94
2022-10-14T22:15:33.761Z,15.79
2022-10-14T22:18:00.136Z,15.14
2022-10-14T22:20:26.500Z,15.39
2022-10-14T22:22:52.872Z,16.04
2022-10-14T22:25:19.257Z,15.28
2022-10-14T22:27:45.636Z,15.31
2022-10-14T22:30:12.012Z,15.12
2022-10-14T22:32:38.396Z,15.27
2022-10-14T22:35:04.784Z,15.06
2022-10-14T22:37:31.170Z,14.75
2022-10-14T22:39:57.547Z,14.33
2022-10-14T22:42:24.182Z,14.76
2022-10-14T22:44:50.654Z,14.30
2022-10-14T22:47:17.038Z,13.85
2022-10-14T22:49:43.419Z,13.86
2022-10-14T22:52:09.811Z,14.12
2022-10-14T22:54:36.195Z,13.57
2022-10-14T22:57:02.575Z,13.29
2022-10-14T22:59:28.966Z,13.44
2022-10-14T23:01:55.337Z,13.51
2022-10-14T23:04:21.703Z,13.51
2022-10-14T23:06:48.143Z,12.45
2022-10-14T23:09:14.531Z,13.58
2022-10-14T23:11:40.898Z,13.04
2022-10-14T23:14:07.599Z,12.27
2022-10-14T23:16:34.052Z,12.46
2022-10-14T23:19:00.434Z,12.41
2022-10-14T23:21:26.807Z,12.35
2022-10-14T23:23:53.168Z,12.23
2022-10-14T23:26:19.547Z,12.48
2022-10-14T23:28:45.981Z,11.88
2022-10-14T23:31:12.401Z,12.26
2022-10-14T23:33:38.776Z,12.08
2022-10-14T23:36:05.145Z,11.88
2022-10-14T23:38:31.722Z,11.42
2022-10-14T23:41:00.286Z,11.47
2022-10-14T23:43:29.026Z,11.39
2022-10-14T23:45:55.393Z,11.67
2022-10-14T23:48:21.782Z,11.38
2022-10-14T23:50:48.150Z,11.02
2022-10-14T23:53:14.540Z,11.49
2022-10-14T23:55:40.918Z,10.89
2022-10-14T23:58:07.297Z,10.88
